createdAt,value
2018-10-06T00:00:47.299Z,11.10
2018-10-06T00:03:14.853Z,11.10
2018-10-06T00:05:42.400Z,11.00
2018-10-06T00:08:09.935Z,11.00
2018-10-06T00:10:37.539Z,11.00
2018-10-06T00:13:05.145Z,11.00
2018-10-06T00:15:32.749Z,10.90
2018-10-06T00:18:00.289Z,10.90
2018-10-06T00:20:27.877Z,10.80
2018-10-06T00:22:55.422Z,10.80
2018-10-06T00:25:22.966Z,10.80
2018-10-06T00:27:50.505Z,10.80
2018-10-06T00:30:18.054Z,10.80
2018-10-06T00:32:45.597Z,10.80
2018-10-06T00:35:13.308Z,10.80
2018-10-06T00:37:40.879Z,10.70
2018-10-06T00:40:08.487Z,10.70
2018-10-06T00:42:36.008Z,10.70
2018-10-06T00:45:04.004Z,10.70
2018-10-06T00:47:31.511Z,10.70
2018-10-06T00:49:59.113Z,10.60
2018-10-06T00:52:26.672Z,10.60
2018-10-06T00:54:54.212Z,10.60
2018-10-06T00:57:21.770Z,10.60
2018-10-06T00:59:49.336Z,10.50
2018-10-06T01:02:18.032Z,10.50
2018-10-06T01:04:45.783Z,10.50
2018-10-06T01:07:13.386Z,10.50
2018-10-06T01:09:40.948Z,10.50
2018-10-06T01:12:08.552Z,10.50
2018-10-06T01:14:36.158Z,10.50
2018-10-06T01:17:04.571Z,10.40
2018-10-06T01:19:32.715Z,10.40
2018-10-06T01:22:00.290Z,10.40
2018-10-06T01:24:27.859Z,10.40
2018-10-06T01:26:55.413Z,10.40
2018-10-06T01:29:23.001Z,10.40
2018-10-06T01:31:50.603Z,10.30
2018-10-06T01:34:18.153Z,10.30
2018-10-06T01:36:45.732Z,10.30
2018-10-06T01:39:13.324Z,10.30
2018-10-06T01:41:40.877Z,10.20
2018-10-06T01:44:08.463Z,10.20
2018-10-06T01:46:36.080Z,10.20
2018-10-06T01:49:03.640Z,10.10
2018-10-06T01:51:31.269Z,10.10
2018-10-06T01:53:58.818Z,10.10
2018-10-06T01:56:26.351Z,10.20
2018-10-06T01:58:53.919Z,10.20
2018-10-06T02:01:21.524Z,10.20
2018-10-06T02:03:49.092Z,10.20
2018-10-06T02:06:16.660Z,10.20
2018-10-06T02:08:44.189Z,10.20
2018-10-06T02:11:11.808Z,10.20
2018-10-06T02:13:39.346Z,10.20
2018-10-06T02:16:06.953Z,10.20
2018-10-06T02:18:34.535Z,10.20
2018-10-06T02:21:02.118Z,10.20
2018-10-06T02:23:29.696Z,10.20
2018-10-06T02:25:57.250Z,10.20
2018-10-06T02:28:24.784Z,10.20
2018-10-06T02:30:52.333Z,10.20
2018-10-06T02:33:19.876Z,10.20
2018-10-06T02:35:47.389Z,10.20
2018-10-06T02:38:14.933Z,10.20
2018-10-06T02:40:42.455Z,10.20
2018-10-06T02:43:10.001Z,10.20
2018-10-06T02:45:37.557Z,10.20
2018-10-06T02:48:05.122Z,10.10
2018-10-06T02:50:32.674Z,10.10
2018-10-06T02:53:00.269Z,10.10
2018-10-06T02:55:27.830Z,10.10
2018-10-06T02:57:55.386Z,10.10
2018-10-06T03:00:22.902Z,10.10
2018-10-06T03:02:50.414Z,10.10
2018-10-06T03:05:17.977Z,10.10
2018-10-06T03:07:45.532Z,10.10
2018-10-06T03:10:13.114Z,10.10
2018-10-06T03:12:40.633Z,10.10
2018-10-06T03:15:08.192Z,10.00
2018-10-06T03:17:35.712Z,10.00
2018-10-06T03:20:03.369Z,10.00
2018-10-06T03:22:30.936Z,10.10
2018-10-06T03:24:58.457Z,10.00
2018-10-06T03:27:25.965Z,10.10
2018-10-06T03:29:53.503Z,10.00
2018-10-06T03:32:21.134Z,10.00
2018-10-06T03:34:48.716Z,10.00
2018-10-06T03:37:16.289Z,10.00
2018-10-06T03:39:43.868Z,10.00
2018-10-06T03:42:11.480Z,10.00
2018-10-06T03:44:39.027Z,9.90
2018-10-06T03:47:06.643Z,9.90
2018-10-06T03:49:34.209Z,9.90
2018-10-06T03:52:01.786Z,9.90
2018-10-06T03:54:29.382Z,9.90
2018-10-06T03:56:57.001Z,9.90
2018-10-06T03:59:24.540Z,9.90
2018-10-06T04:01:52.083Z,9.90
2018-10-06T04:04:19.656Z,9.90
2018-10-06T04:06:47.189Z,9.90
2018-10-06T04:09:14.777Z,9.90
2018-10-06T04:11:42.318Z,9.90
2018-10-06T04:16:44.306Z,9.90
2018-10-06T04:19:11.914Z,9.90
2018-10-06T04:21:46.485Z,9.90
2018-10-06T04:24:14.971Z,9.80
2018-10-06T04:26:42.527Z,9.80
2018-10-06T04:29:10.458Z,9.80
2018-10-06T04:31:38.091Z,9.80
2018-10-06T04:34:05.680Z,9.80
2018-10-06T04:36:33.231Z,9.80
2018-10-06T04:39:01.071Z,9.70
2018-10-06T04:41:29.065Z,9.70
2018-10-06T04:43:56.627Z,9.70
2018-10-06T04:46:24.261Z,9.70
2018-10-06T04:48:51.802Z,9.70
2018-10-06T04:51:19.329Z,9.70
2018-10-06T04:53:46.906Z,9.60
2018-10-06T04:56:14.473Z,9.60
2018-10-06T04:58:42.084Z,9.60
2018-10-06T05:01:09.674Z,9.60
2018-10-06T05:03:37.220Z,9.60
2018-10-06T05:06:04.816Z,9.60
2018-10-06T05:08:32.373Z,9.60
2018-10-06T05:10:59.953Z,9.50
2018-10-06T05:13:27.468Z,9.50
2018-10-06T05:15:55.097Z,9.50
2018-10-06T05:18:22.721Z,9.50
2018-10-06T05:20:50.301Z,9.50
2018-10-06T05:23:17.913Z,9.40
2018-10-06T05:25:45.485Z,9.30
2018-10-06T05:28:13.184Z,9.30
2018-10-06T05:30:40.725Z,9.30
2018-10-06T05:33:08.331Z,9.40
2018-10-06T05:35:35.920Z,9.40
2018-10-06T05:38:03.491Z,9.40
2018-10-06T05:40:31.080Z,9.40
2018-10-06T05:42:58.642Z,9.40
2018-10-06T05:45:26.184Z,9.40
2018-10-06T05:47:53.830Z,9.50
2018-10-06T05:50:21.347Z,9.50
2018-10-06T05:52:48.910Z,9.60
2018-10-06T05:55:16.471Z,9.70
2018-10-06T05:57:44.014Z,9.80
2018-10-06T06:00:11.731Z,9.90
2018-10-06T06:02:39.300Z,10.20
2018-10-06T06:05:11.852Z,10.80
2018-10-06T06:07:39.434Z,11.70
2018-10-06T06:10:07.013Z,12.40
2018-10-06T06:12:34.582Z,12.90
2018-10-06T06:15:02.165Z,13.00
2018-10-06T06:17:29.672Z,13.10
2018-10-06T06:19:57.182Z,13.10
2018-10-06T06:22:24.757Z,13.10
2018-10-06T06:24:52.299Z,13.10
2018-10-06T06:27:19.877Z,13.20
2018-10-06T06:29:47.451Z,13.30
2018-10-06T06:32:15.079Z,13.40
2018-10-06T06:34:42.818Z,13.60
2018-10-06T06:37:10.729Z,14.00
2018-10-06T06:39:38.314Z,14.90
2018-10-06T06:42:05.904Z,16.30
2018-10-06T06:44:34.542Z,17.60
2018-10-06T06:47:01.836Z,18.90
2018-10-06T06:49:29.376Z,19.90
2018-10-06T06:51:56.943Z,20.70
2018-10-06T06:54:24.580Z,21.00
2018-10-06T06:56:52.108Z,21.50
2018-10-06T06:59:19.709Z,22.30
2018-10-06T07:01:47.257Z,23.30
2018-10-06T07:04:14.879Z,24.50
2018-10-06T07:06:42.503Z,25.30
2018-10-06T07:09:10.088Z,26.00
2018-10-06T07:11:37.659Z,26.40
2018-10-06T07:14:05.322Z,27.00
2018-10-06T07:16:32.928Z,27.70
2018-10-06T07:19:00.488Z,28.60
2018-10-06T07:21:28.085Z,29.70
2018-10-06T07:23:55.644Z,30.40
2018-10-06T07:26:23.239Z,30.60
2018-10-06T07:28:50.812Z,31.00
2018-10-06T07:31:18.391Z,31.70
2018-10-06T07:33:46.040Z,32.30
2018-10-06T07:36:13.654Z,33.10
2018-10-06T07:38:41.256Z,33.90
2018-10-06T07:41:08.859Z,34.80
2018-10-06T07:43:36.420Z,35.00
2018-10-06T07:46:04.044Z,35.00
2018-10-06T07:48:31.613Z,34.60
2018-10-06T07:50:59.171Z,34.00
2018-10-06T07:53:26.744Z,33.40
2018-10-06T07:55:54.303Z,32.60
2018-10-06T07:58:21.861Z,32.00
2018-10-06T08:00:49.494Z,31.40
2018-10-06T08:03:17.018Z,30.90
2018-10-06T08:05:44.601Z,30.70
2018-10-06T08:08:12.188Z,30.70
2018-10-06T08:10:39.826Z,30.50
2018-10-06T08:13:07.385Z,30.30
2018-10-06T08:15:34.974Z,30.20
2018-10-06T08:18:02.617Z,30.00
2018-10-06T08:20:30.315Z,29.90
2018-10-06T08:22:57.873Z,29.80
2018-10-06T08:25:25.511Z,29.70
2018-10-06T08:27:53.069Z,29.60
2018-10-06T08:30:20.632Z,29.60
2018-10-06T08:32:48.183Z,29.50
2018-10-06T08:35:15.778Z,29.80
2018-10-06T08:37:43.390Z,30.50
2018-10-06T08:40:11.009Z,31.50
2018-10-06T08:42:38.615Z,33.50
2018-10-06T08:45:06.205Z,35.80
2018-10-06T08:47:33.902Z,37.90
2018-10-06T08:50:01.485Z,39.20
2018-10-06T08:52:29.053Z,40.00
2018-10-06T08:54:56.583Z,40.30
2018-10-06T08:57:24.162Z,41.40
2018-10-06T08:59:51.793Z,42.60
2018-10-06T09:02:19.331Z,42.90
2018-10-06T09:04:47.068Z,43.30
2018-10-06T09:07:14.666Z,43.60
2018-10-06T09:09:42.260Z,43.80
2018-10-06T09:12:09.854Z,43.90
2018-10-06T09:14:37.457Z,44.20
2018-10-06T09:17:05.605Z,44.90
2018-10-06T09:19:33.169Z,45.30
2018-10-06T09:22:00.785Z,45.60
2018-10-06T09:24:28.507Z,45.70
2018-10-06T09:26:56.040Z,45.50
2018-10-06T09:29:23.599Z,45.50
2018-10-06T09:31:51.171Z,45.70
2018-10-06T09:34:18.703Z,45.80
2018-10-06T09:36:46.305Z,45.40
2018-10-06T09:39:13.933Z,45.00
2018-10-06T09:41:41.490Z,44.10
2018-10-06T09:44:09.051Z,43.90
2018-10-06T09:46:36.637Z,44.40
2018-10-06T09:49:04.256Z,45.00
2018-10-06T09:51:31.831Z,45.10
2018-10-06T09:53:59.393Z,45.30
2018-10-06T09:56:26.952Z,45.60
2018-10-06T09:58:54.549Z,47.10
2018-10-06T10:01:27.814Z,48.20
2018-10-06T10:04:01.145Z,48.90
2018-10-06T10:06:28.726Z,49.60
2018-10-06T10:08:56.356Z,48.80
2018-10-06T10:11:23.928Z,48.30
2018-10-06T10:13:51.490Z,47.00
2018-10-06T10:16:19.102Z,45.30
2018-10-06T10:18:46.709Z,44.30
2018-10-06T10:21:14.330Z,43.30
2018-10-06T10:23:41.969Z,42.40
2018-10-06T10:26:09.483Z,41.30
2018-10-06T10:28:37.015Z,40.90
2018-10-06T10:31:04.596Z,41.10
2018-10-06T10:33:32.194Z,41.70
2018-10-06T10:35:59.787Z,41.70
2018-10-06T10:38:27.410Z,42.90
2018-10-06T10:40:54.967Z,43.80
2018-10-06T10:43:22.548Z,44.30
2018-10-06T10:45:50.151Z,44.10
2018-10-06T10:48:17.753Z,42.60
2018-10-06T10:50:45.333Z,41.40
2018-10-06T10:53:12.974Z,40.60
2018-10-06T10:55:40.540Z,39.20
2018-10-06T10:58:08.182Z,37.90
2018-10-06T11:00:35.853Z,36.50
2018-10-06T11:03:03.364Z,36.30
2018-10-06T11:05:30.929Z,36.50
2018-10-06T11:07:58.490Z,35.90
2018-10-06T11:10:26.053Z,35.50
2018-10-06T11:12:53.660Z,34.80
2018-10-06T11:15:21.281Z,34.10
2018-10-06T11:17:48.796Z,34.40
2018-10-06T11:20:16.365Z,35.20
2018-10-06T11:22:43.938Z,35.50
2018-10-06T11:25:11.540Z,35.60
2018-10-06T11:27:39.197Z,35.80
2018-10-06T11:30:06.790Z,36.20
2018-10-06T11:32:34.387Z,37.00
2018-10-06T11:35:02.042Z,37.70
2018-10-06T11:37:29.808Z,38.30
2018-10-06T11:39:57.324Z,38.00
2018-10-06T11:42:24.869Z,39.20
2018-10-06T11:44:52.512Z,41.20
2018-10-06T11:47:20.082Z,42.80
2018-10-06T11:49:47.666Z,44.30
2018-10-06T11:52:15.249Z,45.40
2018-10-06T11:54:42.798Z,46.30
2018-10-06T11:57:10.400Z,45.90
2018-10-06T11:59:38.057Z,46.40
2018-10-06T12:02:05.912Z,46.10
2018-10-06T12:04:33.532Z,44.90
2018-10-06T12:07:01.204Z,43.40
2018-10-06T12:09:28.844Z,42.00
2018-10-06T12:11:56.425Z,40.70
2018-10-06T12:14:23.957Z,39.10
2018-10-06T12:16:51.559Z,38.00
2018-10-06T12:19:19.138Z,37.10
2018-10-06T12:21:46.747Z,36.00
2018-10-06T12:24:14.340Z,35.00
2018-10-06T12:26:41.926Z,33.80
2018-10-06T12:29:09.465Z,33.20
2018-10-06T12:31:37.030Z,32.60
2018-10-06T12:34:04.589Z,32.10
2018-10-06T12:36:32.206Z,31.30
2018-10-06T12:38:59.785Z,30.80
2018-10-06T12:41:27.395Z,30.20
2018-10-06T12:43:55.015Z,29.80
2018-10-06T12:46:22.582Z,29.40
2018-10-06T12:48:50.129Z,29.20
2018-10-06T12:51:17.764Z,28.90
2018-10-06T12:53:45.328Z,28.50
2018-10-06T12:56:12.925Z,28.00
2018-10-06T12:58:40.488Z,27.60
2018-10-06T13:01:08.108Z,27.50
2018-10-06T13:03:35.725Z,27.30
2018-10-06T13:06:03.415Z,27.20
2018-10-06T13:08:30.937Z,27.10
2018-10-06T13:10:58.752Z,27.10
2018-10-06T13:13:26.347Z,27.20
2018-10-06T13:15:53.988Z,27.20
2018-10-06T13:18:21.539Z,27.30
2018-10-06T13:20:49.138Z,27.40
2018-10-06T13:23:16.683Z,27.30
2018-10-06T13:25:44.354Z,27.30
2018-10-06T13:28:12.069Z,27.20
2018-10-06T13:30:39.696Z,27.30
2018-10-06T13:33:07.262Z,27.50
2018-10-06T13:35:34.861Z,27.60
2018-10-06T13:38:02.423Z,27.60
2018-10-06T13:40:30.009Z,27.80
2018-10-06T13:42:57.601Z,28.10
2018-10-06T13:45:25.166Z,28.40
2018-10-06T13:47:52.767Z,28.80
2018-10-06T13:50:20.346Z,28.80
2018-10-06T13:52:47.945Z,29.10
2018-10-06T13:55:15.533Z,29.70
2018-10-06T13:57:43.093Z,30.10
2018-10-06T14:00:10.747Z,30.80
2018-10-06T14:02:38.354Z,31.50
2018-10-06T14:05:05.999Z,31.50
2018-10-06T14:07:33.920Z,31.40
2018-10-06T14:10:01.567Z,31.60
2018-10-06T14:12:29.108Z,31.80
2018-10-06T14:14:56.721Z,31.80
2018-10-06T14:17:24.284Z,31.70
2018-10-06T14:19:51.904Z,31.40
2018-10-06T14:22:19.467Z,31.20
2018-10-06T14:24:47.317Z,30.90
2018-10-06T14:27:14.876Z,30.50
2018-10-06T14:29:42.458Z,30.30
2018-10-06T14:32:10.100Z,30.20
2018-10-06T14:34:37.653Z,30.00
2018-10-06T14:37:05.285Z,29.80
2018-10-06T14:39:32.893Z,29.50
2018-10-06T14:42:00.545Z,29.30
2018-10-06T14:44:28.208Z,29.10
2018-10-06T14:46:55.763Z,28.90
2018-10-06T14:49:23.431Z,28.70
2018-10-06T14:51:51.024Z,28.40
2018-10-06T14:56:53.030Z,28.00
2018-10-06T14:59:20.593Z,27.90
2018-10-06T15:01:48.199Z,27.80
2018-10-06T15:04:15.821Z,27.70
2018-10-06T15:06:43.415Z,27.60
2018-10-06T15:09:11.241Z,27.50
2018-10-06T15:11:38.902Z,27.50
2018-10-06T15:14:06.763Z,27.30
2018-10-06T15:16:34.489Z,27.20
2018-10-06T15:19:02.093Z,27.10
2018-10-06T15:21:29.784Z,26.90
2018-10-06T15:23:57.308Z,26.80
2018-10-06T15:26:25.482Z,26.60
2018-10-06T15:28:53.046Z,26.50
2018-10-06T15:31:20.628Z,26.30
2018-10-06T15:33:48.168Z,26.20
2018-10-06T15:36:15.840Z,26.10
2018-10-06T15:38:43.442Z,25.90
2018-10-06T15:41:11.094Z,25.80
2018-10-06T15:43:38.663Z,25.70
2018-10-06T15:46:06.407Z,25.50
2018-10-06T15:48:33.970Z,25.40
2018-10-06T15:51:01.652Z,25.30
2018-10-06T15:53:29.258Z,25.10
2018-10-06T15:55:57.478Z,25.00
2018-10-06T15:58:25.003Z,24.90
2018-10-06T16:00:52.575Z,24.70
2018-10-06T16:03:20.234Z,24.60
2018-10-06T16:05:47.791Z,24.40
2018-10-06T16:08:15.378Z,24.30
2018-10-06T16:10:42.986Z,24.10
2018-10-06T16:13:10.576Z,24.00
2018-10-06T16:15:38.232Z,23.90
2018-10-06T16:18:05.856Z,23.80
2018-10-06T16:20:33.410Z,23.70
2018-10-06T16:23:01.046Z,23.60
2018-10-06T16:25:28.627Z,23.50
2018-10-06T16:27:56.244Z,23.30
2018-10-06T16:30:23.892Z,23.20
2018-10-06T16:32:51.505Z,23.00
2018-10-06T16:35:19.131Z,22.90
2018-10-06T16:37:46.741Z,22.80
2018-10-06T16:40:14.377Z,22.70
2018-10-06T16:42:42.018Z,22.60
2018-10-06T16:45:09.621Z,22.50
2018-10-06T16:47:37.243Z,22.40
2018-10-06T16:50:04.888Z,22.20
2018-10-06T16:52:32.459Z,22.10
2018-10-06T16:55:00.005Z,22.00
2018-10-06T16:57:27.624Z,21.80
2018-10-06T16:59:55.293Z,21.70
2018-10-06T17:02:22.857Z,21.60
2018-10-06T17:04:50.440Z,21.50
2018-10-06T17:07:18.034Z,21.40
2018-10-06T17:09:45.580Z,21.30
2018-10-06T17:12:13.271Z,21.20
2018-10-06T17:14:40.835Z,21.00
2018-10-06T17:17:08.392Z,20.90
2018-10-06T17:19:35.958Z,20.80
2018-10-06T17:22:03.574Z,20.70
2018-10-06T17:24:31.181Z,20.60
2018-10-06T17:26:58.761Z,20.60
2018-10-06T17:29:26.363Z,20.40
2018-10-06T17:31:53.900Z,20.30
2018-10-06T17:34:21.497Z,20.20
2018-10-06T17:36:49.046Z,20.10
2018-10-06T17:39:16.640Z,20.10
2018-10-06T17:41:44.216Z,20.00
2018-10-06T17:44:11.937Z,19.80
2018-10-06T17:46:39.482Z,19.70
2018-10-06T17:49:07.052Z,19.60
2018-10-06T17:51:34.653Z,19.50
2018-10-06T17:54:02.243Z,19.40
2018-10-06T17:56:29.801Z,19.30
2018-10-06T17:58:57.428Z,19.20
2018-10-06T18:01:24.994Z,19.10
2018-10-06T18:03:52.580Z,19.00
2018-10-06T18:06:20.150Z,18.90
2018-10-06T18:08:47.918Z,18.70
2018-10-06T18:11:15.522Z,18.60
2018-10-06T18:13:43.069Z,18.50
2018-10-06T18:16:10.760Z,18.30
2018-10-06T18:18:38.418Z,18.20
2018-10-06T18:21:06.135Z,18.10
2018-10-06T18:23:33.719Z,18.10
2018-10-06T18:26:01.306Z,18.00
2018-10-06T18:28:28.836Z,17.90
2018-10-06T18:30:56.510Z,17.90
2018-10-06T18:33:24.045Z,17.90
2018-10-06T18:35:51.593Z,17.80
2018-10-06T18:38:19.222Z,17.70
2018-10-06T18:40:46.806Z,17.60
2018-10-06T18:43:14.388Z,17.50
2018-10-06T18:45:41.950Z,17.40
2018-10-06T18:48:09.519Z,17.30
2018-10-06T18:50:37.129Z,17.30
2018-10-06T18:53:04.680Z,17.20
2018-10-06T18:55:32.302Z,17.10
2018-10-06T18:57:59.920Z,17.10
2018-10-06T19:00:27.537Z,17.00
2018-10-06T19:02:55.152Z,16.90
2018-10-06T19:05:22.715Z,16.90
2018-10-06T19:07:50.318Z,16.80
2018-10-06T19:10:17.963Z,16.70
2018-10-06T19:12:45.529Z,16.60
2018-10-06T19:15:13.354Z,16.60
2018-10-06T19:17:40.935Z,16.60
2018-10-06T19:20:08.771Z,16.50
2018-10-06T19:22:36.717Z,16.50
2018-10-06T19:25:04.298Z,16.50
2018-10-06T19:27:31.914Z,16.40
2018-10-06T19:29:59.512Z,16.40
2018-10-06T19:32:27.217Z,16.40
2018-10-06T19:34:54.761Z,16.30
2018-10-06T19:37:22.341Z,16.20
2018-10-06T19:39:50.672Z,16.20
2018-10-06T19:42:18.177Z,16.10
2018-10-06T19:44:45.808Z,16.10
2018-10-06T19:47:13.454Z,16.10
2018-10-06T19:49:41.036Z,16.00
2018-10-06T19:52:08.622Z,15.90
2018-10-06T19:54:36.327Z,15.90
2018-10-06T19:57:04.206Z,15.90
2018-10-06T19:59:31.806Z,15.80
2018-10-06T20:01:59.374Z,15.80
2018-10-06T20:04:27.123Z,15.80
2018-10-06T20:06:54.736Z,15.70
2018-10-06T20:09:22.382Z,15.70
2018-10-06T20:11:49.989Z,15.60
2018-10-06T20:14:17.651Z,15.60
2018-10-06T20:16:45.226Z,15.60
2018-10-06T20:19:12.853Z,15.60
2018-10-06T20:21:40.393Z,15.60
2018-10-06T20:24:08.162Z,15.60
2018-10-06T20:26:35.833Z,15.60
2018-10-06T20:29:03.455Z,15.60
2018-10-06T20:31:31.023Z,15.60
2018-10-06T20:33:58.623Z,15.60
2018-10-06T20:36:26.185Z,15.60
2018-10-06T20:38:53.807Z,15.60
2018-10-06T20:41:21.368Z,15.60
2018-10-06T20:43:48.917Z,15.60
2018-10-06T20:46:16.545Z,15.50
2018-10-06T20:48:44.105Z,15.50
2018-10-06T20:51:11.713Z,15.50
2018-10-06T20:53:39.334Z,15.50
2018-10-06T20:56:07.257Z,15.50
2018-10-06T20:58:34.877Z,15.40
2018-10-06T21:01:02.592Z,15.30
2018-10-06T21:03:30.172Z,15.30
2018-10-06T21:05:57.803Z,15.30
2018-10-06T21:08:25.461Z,15.20
2018-10-06T21:10:53.145Z,15.20
2018-10-06T21:13:20.659Z,15.20
2018-10-06T21:15:48.316Z,15.20
2018-10-06T21:18:15.892Z,15.20
2018-10-06T21:20:44.080Z,15.20
2018-10-06T21:23:11.745Z,15.20
2018-10-06T21:25:39.310Z,15.10
2018-10-06T21:28:07.137Z,15.10
2018-10-06T21:30:35.010Z,15.10
2018-10-06T21:33:02.644Z,15.10
2018-10-06T21:35:30.300Z,15.10
2018-10-06T21:37:57.950Z,15.10
2018-10-06T21:40:25.591Z,15.10
2018-10-06T21:42:53.169Z,15.10
2018-10-06T21:45:20.759Z,15.10
2018-10-06T21:47:48.308Z,15.10
2018-10-06T21:50:15.973Z,15.10
2018-10-06T21:52:43.729Z,15.10
2018-10-06T21:55:11.330Z,15.10
2018-10-06T21:57:38.892Z,15.10
2018-10-06T22:00:06.500Z,15.00
2018-10-06T22:02:34.133Z,15.00
2018-10-06T22:05:01.715Z,15.00
2018-10-06T22:07:29.254Z,15.00
2018-10-06T22:09:56.841Z,15.00
2018-10-06T22:12:24.671Z,15.00
2018-10-06T22:14:52.214Z,15.00
2018-10-06T22:17:19.897Z,14.90
2018-10-06T22:19:47.494Z,14.90
2018-10-06T22:22:15.241Z,14.90
2018-10-06T22:24:42.845Z,14.80
2018-10-06T22:27:10.487Z,14.80
2018-10-06T22:29:38.490Z,14.90
2018-10-06T22:32:06.111Z,14.90
2018-10-06T22:34:33.703Z,14.90
2018-10-06T22:37:01.337Z,14.90
2018-10-06T22:39:29.038Z,14.80
2018-10-06T22:41:56.754Z,14.80
2018-10-06T22:44:24.352Z,14.80
2018-10-06T22:46:51.904Z,14.80
2018-10-06T22:49:20.454Z,14.80
2018-10-06T22:51:48.039Z,14.80
2018-10-06T22:54:15.675Z,14.80
2018-10-06T22:56:43.268Z,14.70
2018-10-06T22:59:10.824Z,14.70
2018-10-06T23:01:38.373Z,14.70
2018-10-06T23:04:06.654Z,14.70
2018-10-06T23:06:34.207Z,14.70
2018-10-06T23:09:01.835Z,14.60
2018-10-06T23:11:29.376Z,14.60
2018-10-06T23:13:56.914Z,14.60
2018-10-06T23:16:24.512Z,14.50
2018-10-06T23:18:52.064Z,14.50
2018-10-06T23:21:19.618Z,14.50
2018-10-06T23:23:47.223Z,14.40
2018-10-06T23:26:14.815Z,14.40
2018-10-06T23:28:42.408Z,14.30
2018-10-06T23:31:10.039Z,14.30
2018-10-06T23:33:37.617Z,14.30
2018-10-06T23:36:05.369Z,14.20
2018-10-06T23:38:32.962Z,14.20
2018-10-06T23:41:00.522Z,14.20
2018-10-06T23:43:28.125Z,14.10
2018-10-06T23:45:55.725Z,14.10
2018-10-06T23:48:23.241Z,14.00
2018-10-06T23:50:50.819Z,14.00
2018-10-06T23:53:18.462Z,14.00
2018-10-06T23:55:46.071Z,13.90
2018-10-06T23:58:13.977Z,13.90
